Crane, Montana
Current Conditions -  °F | °C
As of 10:55 AM on Friday 21 Nov 2014 (Local Time) from KSDY Reporting Station
Clear Clear  
Wind Chill: 29°   Ceiling: Unl
Heat Index: 36°   Visibility: 10mi
Dew Point: 27°   Wind: 9mph
Humidity: 70%   Direction: 190°S
Pressure: 29.71"   Gusts: NA
Location:  47.57°N, 104.25°W
Report Text: KSDY 211755Z AUTO 19008KT 10SM CLR 02/M03 A2971 RMK AO1 10020 21060 57003
Loading
Personal Weather Stations






























Interactive Weather Map New forecast layout! Learn more

10-Day Weather Forecast

Advertisements
Track Severe Weather on mobile